Time;durP1;ratioP1;P1;durP2;ratioP2;P2;SDS_P1;SDS_P2;PMS_P1;PMS_P2;Temp;Humidity;BMP_temperature;BMP_pressure;BME280_temperature;BME280_humidity;BME280_pressure;Samples;Min_cycle;Max_cycle;Signal;HPM_P1;HPM_P2
2021/08/12 00:01:28;;;;;;;25.25;12.98;;;;;;;13.03;90.41;102116.22;5012332;28;20033;-73
2021/08/12 00:03:53;;;;;;;26.23;13.48;;;;;;;13.02;90.06;102108.31;5012011;28;20133;-73
2021/08/12 00:06:19;;;;;;;26.17;14.02;;;;;;;13.01;90.20;102106.63;5012679;28;20034;-73
2021/08/12 00:08:44;;;;;;;20.23;12.90;;;;;;;12.99;89.79;102111.25;5012353;28;20034;-73
2021/08/12 00:11:09;;;;;;;24.67;14.23;;;;;;;12.98;89.89;102112.22;5011998;28;20038;-73
2021/08/12 00:13:35;;;;;;;23.85;14.02;;;;;;;12.95;89.95;102110.63;5012101;28;20114;-73
2021/08/12 00:16:01;;;;;;;28.52;16.77;;;;;;;12.97;90.51;102111.38;5011795;28;20038;-73
2021/08/12 00:18:27;;;;;;;31.90;17.20;;;;;;;13.01;91.31;102120.81;5012271;28;20041;-73
2021/08/12 00:20:52;;;;;;;27.00;15.55;;;;;;;13.00;91.39;102110.25;5011795;28;20117;-73
2021/08/12 00:23:18;;;;;;;24.05;14.98;;;;;;;12.97;90.50;102114.03;5012140;28;20362;-73
2021/08/12 00:25:45;;;;;;;26.90;16.52;;;;;;;12.95;90.42;102107.13;5011961;28;20454;-73
2021/08/12 00:28:12;;;;;;;27.00;16.15;;;;;;;12.95;90.33;102099.94;5011789;28;20089;-73
2021/08/12 00:30:37;;;;;;;24.67;15.10;;;;;;;12.94;90.62;102097.41;5012259;28;20121;-73
2021/08/12 00:33:02;;;;;;;26.92;15.60;;;;;;;12.92;90.77;102094.00;5011717;28;20061;-73
2021/08/12 00:35:28;;;;;;;27.92;16.67;;;;;;;12.92;91.34;102094.84;5012093;28;20478;-73
2021/08/12 00:37:53;;;;;;;29.88;15.88;;;;;;;12.87;90.80;102102.41;5011516;28;20084;-72
2021/08/12 00:40:20;;;;;;;28.27;15.50;;;;;;;12.85;90.69;102107.00;5011982;28;20480;-73
2021/08/12 00:42:45;;;;;;;25.25;15.70;;;;;;;12.85;91.12;102102.53;5014458;28;20084;-74
2021/08/12 00:45:11;;;;;;;29.77;16.90;;;;;;;12.83;90.90;102100.94;4997566;28;20319;-74
2021/08/12 00:47:36;;;;;;;24.17;14.20;;;;;;;12.81;90.90;102101.06;4998163;28;20450;-73
2021/08/12 00:50:02;;;;;;;25.13;14.40;;;;;;;12.80;90.11;102091.34;5014976;28;20066;-73
2021/08/12 00:52:29;;;;;;;23.25;14.15;;;;;;;12.79;90.54;102092.31;5016021;28;20034;-73
2021/08/12 00:54:54;;;;;;;25.90;17.10;;;;;;;12.81;90.78;102092.22;5015140;28;20109;-73
2021/08/12 00:57:21;;;;;;;29.08;17.90;;;;;;;12.81;91.54;102090.38;5015569;28;20117;-73
2021/08/12 00:59:46;;;;;;;25.13;15.80;;;;;;;12.77;91.28;102094.25;5015564;28;20048;-73
2021/08/12 01:02:13;;;;;;;31.88;16.83;;;;;;;12.74;90.45;102097.19;5014750;28;20033;-73
2021/08/12 01:04:42;;;;;;;27.40;17.13;;;;;;;12.75;91.20;102090.00;5015560;28;20105;-73
2021/08/12 01:07:13;;;;;;;27.02;15.27;;;;;;;12.73;91.28;102083.94;5014905;28;20037;-72
2021/08/12 01:10:02;;;;;;;25.65;15.52;;;;;;;12.72;91.30;102077.78;5015308;28;20401;-73
2021/08/12 01:12:35;;;;;;;27.58;15.32;;;;;;;12.72;91.47;102077.78;5017814;28;20038;-73
2021/08/12 01:15:10;;;;;;;23.08;14.60;;;;;;;12.70;91.24;102085.03;5018008;28;20053;-72
2021/08/12 01:17:43;;;;;;;26.13;15.35;;;;;;;12.68;91.30;102076.31;5018242;28;20032;-73
2021/08/12 01:20:39;;;;;;;27.08;16.15;;;;;;;12.67;92.02;102078.13;5015389;28;20521;-73
2021/08/12 01:23:09;;;;;;;24.23;14.13;;;;;;;12.64;91.50;102089.03;5014737;28;20034;-73
2021/08/12 01:25:36;;;;;;;30.30;19.00;;;;;;;12.68;91.19;102085.16;5015192;28;20040;-73
2021/08/12 01:28:25;;;;;;;28.63;18.00;;;;;;;12.73;91.77;102102.63;5014403;28;20069;-73
2021/08/12 01:31:24;;;;;;;27.20;14.98;;;;;;;12.68;91.35;102098.50;5015087;28;20033;-73
2021/08/12 01:33:55;;;;;;;26.00;16.15;;;;;;;12.66;91.16;102097.78;4997367;28;20084;-73
2021/08/12 01:36:21;;;;;;;;;;;;;;;12.67;91.48;102086.16;5014636;28;20438;-73
2021/08/12 01:38:49;;;;;;;29.75;17.55;;;;;;;12.67;91.66;102090.63;5014770;28;19916;-72
2021/08/12 01:41:16;;;;;;;29.65;17.40;;;;;;;12.67;91.92;102079.94;5014082;28;20046;-72
2021/08/12 01:43:41;;;;;;;32.00;17.25;;;;;;;12.65;91.62;102076.56;5014452;28;20046;-72
2021/08/12 01:46:08;;;;;;;22.83;14.15;;;;;;;12.62;91.30;102074.13;5013930;28;20506;-72
2021/08/12 01:48:35;;;;;;;28.90;16.48;;;;;;;12.63;91.81;102078.47;5014449;28;20057;-72
2021/08/12 01:51:02;;;;;;;28.33;17.10;;;;;;;12.63;92.04;102074.00;5014557;28;20037;-72
2021/08/12 01:53:28;;;;;;;23.33;15.73;;;;;;;12.60;91.82;102073.38;5012964;28;20037;-72
2021/08/12 01:55:54;;;;;;;32.20;17.10;;;;;;;12.59;91.68;102066.38;5014518;28;20065;-72
2021/08/12 01:58:23;;;;;;;24.33;14.85;;;;;;;12.59;91.85;102069.03;5013456;28;20038;-72
2021/08/12 02:00:51;;;;;;;30.25;17.45;;;;;;;12.57;91.72;102065.63;5014281;28;20030;-73
2021/08/12 02:03:18;;;;;;;26.85;15.68;;;;;;;12.54;91.89;102058.72;5013622;28;20065;-73
2021/08/12 02:05:45;;;;;;;25.73;15.25;;;;;;;12.55;92.11;102062.25;5013121;28;20109;-72
2021/08/12 02:08:10;;;;;;;23.52;15.73;;;;;;;12.55;92.45;102054.22;5013611;28;20044;-72
2021/08/12 02:10:36;;;;;;;27.90;16.77;;;;;;;12.57;92.11;102053.16;5014144;28;20113;-72
2021/08/12 02:13:02;;;;;;;23.15;15.02;;;;;;;12.58;92.27;102056.66;5013879;28;20034;-72
2021/08/12 02:15:27;;;;;;;31.65;16.15;;;;;;;12.59;92.23;102055.69;5013546;28;20038;-72
2021/08/12 02:17:53;;;;;;;24.67;15.30;;;;;;;12.60;92.22;102058.22;5014399;28;20088;-72
2021/08/12 02:20:18;;;;;;;25.23;17.10;;;;;;;12.63;92.64;102059.78;5013321;28;20504;-72
2021/08/12 02:22:47;;;;;;;32.40;19.52;;;;;;;12.66;92.64;102064.91;5013710;28;20393;-72
2021/08/12 02:25:30;;;;;;;32.25;17.20;;;;;;;12.66;93.21;102062.25;5013218;28;20092;-73
2021/08/12 02:27:59;;;;;;;29.90;15.93;;;;;;;12.65;92.54;102065.88;5013854;28;20056;-73
2021/08/12 02:30:25;;;;;;;25.70;15.88;;;;;;;12.61;92.39;102059.91;5013175;28;20034;-73
2021/08/12 02:32:53;;;;;;;21.20;13.93;;;;;;;12.60;92.43;102052.03;5013487;28;20087;-73
2021/08/12 02:35:20;;;;;;;26.73;14.90;;;;;;;12.57;92.08;102042.47;5013061;28;20105;-73
2021/08/12 02:37:49;;;;;;;27.63;14.23;;;;;;;12.55;92.11;102046.22;5013691;28;20417;-73
2021/08/12 02:40:15;;;;;;;20.45;11.90;;;;;;;12.52;91.95;102045.50;5012861;28;20026;-72
2021/08/12 02:42:42;;;;;;;18.27;12.88;;;;;;;12.49;91.90;102047.56;5013828;28;20041;-73
2021/08/12 02:45:09;;;;;;;18.45;13.27;;;;;;;12.46;91.33;102053.13;5013646;28;20054;-73
2021/08/12 02:47:36;;;;;;;23.75;14.55;;;;;;;12.42;91.68;102054.34;5013343;28;20480;-73
2021/08/12 02:50:04;;;;;;;23.52;13.43;;;;;;;12.35;91.41;102049.50;5013066;28;20063;-73
2021/08/12 02:52:32;;;;;;;22.00;14.35;;;;;;;12.31;91.64;102050.69;5012797;28;20048;-73
2021/08/12 02:54:57;;;;;;;29.80;16.65;;;;;;;12.30;92.44;102054.34;5013330;28;20041;-73
2021/08/12 02:57:23;;;;;;;24.23;13.57;;;;;;;12.26;92.20;102054.72;5012849;28;20026;-73
2021/08/12 02:59:49;;;;;;;20.40;13.05;;;;;;;12.21;92.08;102057.75;5013025;28;20057;-73
2021/08/12 03:02:18;;;;;;;30.08;14.27;;;;;;;12.16;92.14;102050.09;5013189;28;20355;-72
2021/08/12 03:04:43;;;;;;;20.10;13.13;;;;;;;12.13;91.87;102044.16;5013333;28;20042;-72
2021/08/12 03:07:10;;;;;;;31.40;18.30;;;;;;;12.15;92.53;102050.19;5013502;28;20488;-72
2021/08/12 03:09:35;;;;;;;30.40;16.67;;;;;;;12.14;92.89;102051.19;4994818;28;20121;-72
2021/08/12 03:12:02;;;;;;;40.40;19.90;;;;;;;12.10;93.25;102047.91;5013060;28;20045;-72
2021/08/12 03:14:30;;;;;;;30.20;18.05;;;;;;;12.10;93.29;102047.06;5012076;28;20088;-72
2021/08/12 03:17:00;;;;;;;30.95;16.35;;;;;;;12.09;93.47;102045.34;5013055;28;20115;-72
2021/08/12 03:19:26;;;;;;;29.15;17.92;;;;;;;12.08;93.19;102051.69;5012444;28;20034;-72
2021/08/12 03:22:06;;;;;;;27.75;16.05;;;;;;;12.08;93.62;102057.84;5012660;28;20093;-72
2021/08/12 03:24:46;;;;;;;26.50;16.17;;;;;;;12.08;93.50;102057.84;5012163;28;20029;-72
2021/08/12 03:27:13;;;;;;;29.67;16.77;;;;;;;12.10;93.68;102071.91;5012745;28;20479;-72
2021/08/12 03:29:43;;;;;;;29.85;17.20;;;;;;;12.11;93.94;102070.09;5012953;28;20041;-73
2021/08/12 03:32:09;;;;;;;30.30;18.08;;;;;;;12.13;93.99;102063.66;5012777;28;20044;-73
2021/08/12 03:34:36;;;;;;;25.88;15.55;;;;;;;12.14;93.86;102059.19;5012350;28;20041;-72
2021/08/12 03:37:02;;;;;;;23.00;14.85;;;;;;;12.10;93.60;102060.41;5012824;28;20034;-72
2021/08/12 03:39:28;;;;;;;36.55;17.98;;;;;;;12.12;93.58;102059.31;5012170;28;20074;-72
2021/08/12 03:41:53;;;;;;;27.58;16.60;;;;;;;12.12;93.63;102051.31;5012694;28;20046;-72
2021/08/12 03:44:19;;;;;;;26.95;14.95;;;;;;;12.10;93.74;102055.91;5011635;28;20050;-73
2021/08/12 03:46:44;;;;;;;30.58;16.92;;;;;;;12.11;93.37;102054.09;5011513;28;20138;-72
2021/08/12 03:49:10;;;;;;;27.15;15.48;;;;;;;12.10;93.34;102049.72;5012580;28;20030;-72
2021/08/12 03:51:35;;;;;;;26.77;15.50;;;;;;;12.10;93.63;102049.72;5011660;28;20033;-73
2021/08/12 03:54:01;;;;;;;25.05;14.45;;;;;;;12.10;93.71;102047.91;5012431;28;20065;-72
2021/08/12 03:56:26;;;;;;;30.48;16.83;;;;;;;12.12;93.76;102051.31;5010729;28;20076;-73
2021/08/12 03:58:51;;;;;;;35.65;19.42;;;;;;;12.12;93.87;102051.31;5012614;28;20021;-72
2021/08/12 04:01:17;;;;;;;27.20;16.40;;;;;;;12.13;94.00;102046.81;5012681;28;20030;-73
2021/08/12 04:03:42;;;;;;;26.95;16.38;;;;;;;12.12;93.92;102048.66;5012162;28;20029;-72
2021/08/12 04:06:08;;;;;;;31.27;18.20;;;;;;;12.14;93.65;102048.53;5012622;28;20030;-72
2021/08/12 04:08:35;;;;;;;28.00;16.42;;;;;;;12.14;93.50;102044.03;5011997;28;20034;-72
2021/08/12 04:11:00;;;;;;;26.27;15.68;;;;;;;12.16;93.81;102046.56;5012470;28;20485;-72
2021/08/12 04:13:25;;;;;;;31.23;16.33;;;;;;;12.20;93.43;102053.38;5010515;28;20076;-72
2021/08/12 04:15:51;;;;;;;35.92;19.15;;;;;;;12.23;93.34;102055.81;5012439;28;20030;-72
2021/08/12 04:18:16;;;;;;;33.83;18.48;;;;;;;12.28;93.48;102056.28;5015985;28;20034;-73
2021/08/12 04:20:41;;;;;;;33.85;18.88;;;;;;;12.30;93.51;102059.69;5015792;28;20088;-72
2021/08/12 04:23:07;;;;;;;39.55;22.02;;;;;;;12.35;93.82;102062.00;5016000;28;20034;-72
2021/08/12 04:25:32;;;;;;;42.17;21.58;;;;;;;12.38;93.96;102061.75;5015540;28;20041;-72
2021/08/12 04:27:57;;;;;;;38.10;20.60;;;;;;;12.41;93.70;102060.66;5016228;28;20032;-73
2021/08/12 04:30:23;;;;;;;35.17;19.65;;;;;;;12.41;93.86;102053.50;5015520;28;20044;-72
2021/08/12 04:32:48;;;;;;;33.55;17.35;;;;;;;12.43;93.92;102056.06;5015858;28;20033;-73
2021/08/12 04:35:14;;;;;;;32.55;17.92;;;;;;;12.44;93.50;102061.25;5016063;28;20034;-73
2021/08/12 04:37:45;;;;;;;39.33;20.67;;;;;;;12.46;93.69;102055.81;5015383;28;20401;-72
2021/08/12 04:40:16;;;;;;;35.97;19.38;;;;;;;12.48;93.68;102059.19;5016052;28;20093;-72
2021/08/12 04:42:43;;;;;;;36.15;19.67;;;;;;;12.51;94.00;102066.97;5015119;28;20042;-73
2021/08/12 04:45:09;;;;;;;31.45;18.48;;;;;;;12.52;94.14;102057.97;5015958;28;20137;-73
2021/08/12 04:47:34;;;;;;;36.10;19.67;;;;;;;12.54;94.19;102066.75;5015297;28;20105;-72
2021/08/12 04:50:00;;;;;;;25.00;15.77;;;;;;;12.56;93.86;102070.13;5015877;28;20101;-72
2021/08/12 04:52:25;;;;;;;31.90;18.15;;;;;;;12.56;93.89;102080.81;5015175;28;20034;-71
2021/08/12 04:54:51;;;;;;;37.35;20.50;;;;;;;12.58;93.44;102081.50;5016014;28;20079;-71
2021/08/12 04:57:16;;;;;;;32.15;18.50;;;;;;;12.64;94.12;102083.69;4998174;28;20022;-72
2021/08/12 04:59:41;;;;;;;32.35;17.65;;;;;;;12.68;93.74;102071.81;5015162;28;20125;-72
2021/08/12 05:02:07;;;;;;;37.75;19.65;;;;;;;12.73;93.94;102070.59;5015612;28;20034;-72
2021/08/12 05:04:32;;;;;;;39.72;20.58;;;;;;;12.77;93.93;102062.22;5014772;28;20030;-72
2021/08/12 05:06:57;;;;;;;32.15;19.08;;;;;;;12.81;93.80;102060.16;5015572;28;20081;-72
2021/08/12 05:09:23;;;;;;;27.38;17.35;;;;;;;12.80;93.92;102059.28;5015210;28;20080;-72
2021/08/12 05:11:48;;;;;;;34.95;19.27;;;;;;;12.80;93.68;102053.94;5014482;28;20100;-72
2021/08/12 05:14:13;;;;;;;36.50;20.85;;;;;;;12.82;93.55;102064.50;5015224;28;20041;-74
2021/08/12 05:16:39;;;;;;;42.75;21.80;;;;;;;12.85;93.67;102064.25;5014504;28;20030;-73
2021/08/12 05:19:04;;;;;;;39.25;20.10;;;;;;;12.87;94.06;102062.34;5015275;28;20442;-73
2021/08/12 05:21:30;;;;;;;37.75;20.10;;;;;;;12.87;93.46;102063.16;5014651;28;20517;-73
2021/08/12 05:23:55;;;;;;;40.17;20.33;;;;;;;12.87;93.75;102059.66;5015745;28;20026;-71
2021/08/12 05:26:20;;;;;;;49.30;24.92;;;;;;;12.90;93.70;102071.91;5015434;28;20466;-73
2021/08/12 05:28:46;;;;;;;40.28;22.33;;;;;;;12.94;94.06;102070.69;5014933;28;20041;-73
2021/08/12 05:31:11;;;;;;;50.67;23.58;;;;;;;12.97;94.25;102063.28;5015317;28;20034;-73
2021/08/12 05:33:37;;;;;;;56.35;24.60;;;;;;;13.03;93.87;102072.59;5014651;28;20034;-75
2021/08/12 05:36:04;;;;;;;55.78;25.35;;;;;;;13.10;94.25;102065.78;5015173;28;20041;-76
2021/08/12 05:38:29;;;;;;;53.63;25.70;;;;;;;13.19;94.05;102073.03;5015235;28;20033;-74
2021/08/12 05:40:56;;;;;;;56.03;27.10;;;;;;;13.28;94.19;102074.09;5013892;28;20049;-74
2021/08/12 05:43:22;;;;;;;53.55;24.95;;;;;;;13.39;94.57;102070.56;5014507;28;20480;-75
2021/08/12 05:45:47;;;;;;;53.33;26.23;;;;;;;13.51;94.17;102072.25;5013899;28;20026;-75
2021/08/12 05:48:13;;;;;;;50.63;24.58;;;;;;;13.62;94.31;102070.50;5014450;28;20112;-74
2021/08/12 05:50:43;;;;;;;46.03;24.80;;;;;;;13.69;93.97;102069.84;5014070;28;20033;-74
2021/08/12 05:53:13;;;;;;;52.22;22.88;;;;;;;13.80;93.85;102068.94;5014693;28;20042;-73
2021/08/12 05:55:39;;;;;;;44.65;22.90;;;;;;;13.87;93.56;102072.78;5013810;28;20378;-73
2021/08/12 05:58:04;;;;;;;42.83;22.27;;;;;;;13.97;93.30;102074.66;5014569;28;20065;-74
2021/08/12 06:00:30;;;;;;;45.80;24.70;;;;;;;14.04;93.16;102079.34;5014166;28;20065;-72
2021/08/12 06:02:55;;;;;;;45.83;22.52;;;;;;;14.10;92.34;102072.63;5013771;28;20466;-76
2021/08/12 06:05:20;;;;;;;37.95;21.60;;;;;;;14.15;92.13;102078.44;5014689;28;20030;-76
2021/08/12 06:07:46;;;;;;;36.70;21.05;;;;;;;14.23;92.39;102083.97;5013367;28;20061;-76
2021/08/12 06:10:11;;;;;;;31.73;20.35;;;;;;;14.34;91.92;102087.56;5014303;28;20042;-75
2021/08/12 06:12:37;;;;;;;36.03;20.83;;;;;;;14.42;91.80;102087.72;5013248;28;20112;-73
2021/08/12 06:15:03;;;;;;;33.55;20.48;;;;;;;14.52;91.25;102093.97;5014317;28;20037;-73
2021/08/12 06:17:29;;;;;;;41.00;18.90;;;;;;;14.59;90.86;102084.41;5014026;28;20041;-74
2021/08/12 06:19:57;;;;;;;33.30;18.27;;;;;;;14.71;90.60;102093.25;5013517;28;20080;-73
2021/08/12 06:22:22;;;;;;;32.30;18.25;;;;;;;14.88;91.05;102091.72;5014120;28;20034;-74
2021/08/12 06:24:48;;;;;;;28.20;17.25;;;;;;;15.01;89.61;102096.00;5013247;28;20453;-74
2021/08/12 06:27:13;;;;;;;31.00;16.60;;;;;;;15.14;89.15;102094.75;5013835;28;20038;-73
2021/08/12 06:29:39;;;;;;;32.97;16.50;;;;;;;15.25;88.78;102090.25;5013078;28;20076;-71
2021/08/12 06:32:04;;;;;;;24.02;15.80;;;;;;;15.36;88.30;102090.16;5014058;28;20412;-71
2021/08/12 06:34:30;;;;;;;22.73;15.50;;;;;;;15.45;87.53;102089.28;5013783;28;20105;-73
2021/08/12 06:36:55;;;;;;;23.23;13.27;;;;;;;15.52;86.40;102087.75;5013078;28;20117;-74
2021/08/12 06:39:20;;;;;;;19.10;12.38;;;;;;;15.66;86.06;102085.63;5013138;28;20359;-74
2021/08/12 06:41:46;;;;;;;17.00;11.20;;;;;;;15.77;85.23;102090.00;4995196;28;20073;-73
2021/08/12 06:44:11;;;;;;;18.15;11.13;;;;;;;15.89;84.37;102088.03;5013682;28;20478;-74
2021/08/12 06:46:36;;;;;;;24.05;10.32;;;;;;;16.03;83.37;102085.75;5013780;28;20034;-73
2021/08/12 06:49:02;;;;;;;19.25;9.27;;;;;;;16.19;83.28;102090.50;5012913;28;20034;-72
2021/08/12 06:51:27;;;;;;;17.88;7.80;;;;;;;16.31;82.89;102093.00;5013528;28;20037;-74
2021/08/12 06:53:53;;;;;;;19.77;7.78;;;;;;;16.39;82.28;102085.91;5012883;28;20485;-74
2021/08/12 06:56:18;;;;;;;14.18;7.78;;;;;;;16.45;81.47;102084.50;5013391;28;20485;-75
2021/08/12 06:58:43;;;;;;;15.25;6.60;;;;;;;16.49;80.44;102096.59;5012826;28;20034;-73
2021/08/12 07:01:09;;;;;;;13.02;6.00;;;;;;;16.61;80.95;102096.44;4995849;28;20393;-75
2021/08/12 07:03:34;;;;;;;12.55;5.95;;;;;;;16.70;79.25;102092.84;5013357;28;20037;-73
2021/08/12 07:05:59;;;;;;;10.32;5.07;;;;;;;16.80;77.33;102092.81;5012515;28;20033;-74
2021/08/12 07:08:25;;;;;;;9.40;5.07;;;;;;;16.87;77.97;102094.78;5013074;28;20041;-75
2021/08/12 07:10:50;;;;;;;10.40;5.20;;;;;;;16.94;76.05;102095.00;5012443;28;20482;-73
2021/08/12 07:13:16;;;;;;;7.43;4.90;;;;;;;16.98;75.89;102093.72;5013157;28;20537;-75
2021/08/12 07:15:41;;;;;;;6.28;4.20;;;;;;;17.02;75.99;102092.41;5013106;28;20390;-72
2021/08/12 07:18:06;;;;;;;9.68;4.00;;;;;;;16.99;75.65;102098.09;5012497;28;20058;-72
2021/08/12 07:20:36;;;;;;;8.27;3.72;;;;;;;17.13;75.05;102094.03;5012817;28;20030;-75
2021/08/12 07:23:02;;;;;;;7.35;3.67;;;;;;;17.30;73.77;102097.72;5012323;28;20112;-76
2021/08/12 07:25:27;;;;;;;7.68;3.60;;;;;;;17.45;72.96;102096.22;5013040;28;20022;-76
2021/08/12 07:27:52;;;;;;;7.90;3.78;;;;;;;17.59;74.33;102100.19;5012256;28;20033;-75
2021/08/12 07:30:18;;;;;;;9.30;3.85;;;;;;;17.69;74.59;102104.66;5012662;28;20481;-76
2021/08/12 07:32:43;;;;;;;12.60;3.92;;;;;;;17.81;71.35;102103.44;4995361;28;20117;-77
2021/08/12 07:35:09;;;;;;;8.38;4.07;;;;;;;17.90;70.57;102101.66;5011976;28;20069;-75
2021/08/12 07:37:35;;;;;;;12.50;4.15;;;;;;;18.02;69.50;102104.94;5012845;28;20044;-75
2021/08/12 07:40:00;;;;;;;11.65;3.72;;;;;;;18.14;69.55;102109.91;5012079;28;20524;-75
2021/08/12 07:42:26;;;;;;;7.15;3.70;;;;;;;18.28;68.13;102104.94;5012942;28;20133;-74
2021/08/12 07:44:51;;;;;;;13.05;4.10;;;;;;;18.46;66.85;102107.56;5012211;28;20056;-73
2021/08/12 07:47:17;;;;;;;8.25;3.95;;;;;;;18.61;67.13;102100.56;5012447;28;20040;-75
2021/08/12 07:49:42;;;;;;;9.95;4.07;;;;;;;18.75;67.91;102112.59;5012614;28;20034;-75
2021/08/12 07:52:07;;;;;;;6.57;3.50;;;;;;;18.80;66.28;102114.81;5011818;28;20137;-75
2021/08/12 07:54:35;;;;;;;7.90;3.38;;;;;;;18.98;65.34;102101.25;5012703;28;20455;-74
2021/08/12 07:57:00;;;;;;;10.23;3.80;;;;;;;19.00;64.44;102100.09;5012034;28;20040;-77
2021/08/12 07:59:25;;;;;;;9.45;3.35;;;;;;;19.07;64.88;102099.44;4995136;28;20386;-76
2021/08/12 08:01:53;;;;;;;6.55;3.00;;;;;;;19.06;63.79;102108.50;5012356;28;20084;-75
2021/08/12 08:04:18;;;;;;;7.40;3.28;;;;;;;19.13;65.41;102106.84;5012796;28;20092;-75
2021/08/12 08:06:44;;;;;;;7.93;3.17;;;;;;;19.27;63.50;102100.81;5012496;28;20445;-76
2021/08/12 08:09:09;;;;;;;7.72;2.60;;;;;;;19.42;63.78;102108.25;5011731;28;20433;-75
2021/08/12 08:11:34;;;;;;;7.55;2.95;;;;;;;19.61;61.84;102099.81;5012147;28;20038;-75
2021/08/12 08:14:00;;;;;;;6.85;2.50;;;;;;;19.80;61.94;102109.47;5011907;28;20034;-75
2021/08/12 08:16:27;;;;;;;5.93;2.42;;;;;;;20.00;60.52;102106.44;5012558;28;20061;-75
2021/08/12 08:18:54;;;;;;;7.68;2.97;;;;;;;20.19;59.42;102107.91;5012361;28;20121;-75
2021/08/12 08:21:19;;;;;;;6.10;2.67;;;;;;;20.47;59.21;102107.50;5012386;28;20065;-75
2021/08/12 08:23:44;;;;;;;5.80;2.88;;;;;;;20.65;59.05;102110.00;4978420;28;20038;-76
2021/08/12 08:26:10;;;;;;;7.45;3.20;;;;;;;20.88;59.38;102113.59;5011555;28;20030;-76
2021/08/12 08:28:35;;;;;;;6.85;2.70;;;;;;;21.34;56.82;102112.00;5012386;28;20034;-75
2021/08/12 08:31:01;;;;;;;5.38;2.70;;;;;;;21.75;56.78;102101.75;5011943;28;20088;-75
2021/08/12 08:33:26;;;;;;;4.30;2.45;;;;;;;22.05;55.63;102101.78;5011094;28;20066;-75
2021/08/12 08:35:51;;;;;;;5.00;2.53;;;;;;;22.29;52.80;102114.25;5012404;28;20030;-76
2021/08/12 08:38:17;;;;;;;6.28;2.53;;;;;;;22.44;52.58;102106.16;5011785;28;20486;-76
2021/08/12 08:40:42;;;;;;;7.53;2.50;;;;;;;22.80;50.96;102108.06;5012186;28;20049;-76
2021/08/12 08:43:08;;;;;;;6.95;2.58;;;;;;;23.01;50.75;102115.41;5011605;28;20038;-76
2021/08/12 08:45:35;;;;;;;5.00;2.47;;;;;;;23.32;50.78;102110.75;5012263;28;20050;-74
2021/08/12 08:48:04;;;;;;;7.13;2.40;;;;;;;23.43;50.51;102110.25;5011527;28;20459;-75
2021/08/12 08:50:32;;;;;;;5.28;2.60;;;;;;;23.32;51.01;102108.03;5012128;28;20459;-72
2021/08/12 08:52:59;;;;;;;4.03;2.15;;;;;;;23.47;49.59;102107.97;5011805;28;20463;-77
2021/08/12 08:55:25;;;;;;;5.75;2.63;;;;;;;23.64;51.60;102106.69;5012212;28;20125;-75
2021/08/12 08:57:56;;;;;;;7.30;2.60;;;;;;;23.87;51.10;102114.66;5012106;28;20463;-76
2021/08/12 09:00:22;;;;;;;;;;;;;;;23.84;49.78;102112.28;5011774;28;20061;-75
2021/08/12 09:02:49;;;;;;;6.70;2.42;;;;;;;23.99;48.87;102108.66;5011621;28;19945;-77
2021/08/12 09:05:15;;;;;;;5.00;2.55;;;;;;;24.63;47.39;102108.47;5014830;28;20482;-77
2021/08/12 09:07:41;;;;;;;5.93;2.30;;;;;;;24.42;45.33;102111.25;5015656;28;20104;-79
2021/08/12 09:10:08;;;;;;;4.80;2.03;;;;;;;24.61;46.79;102102.38;5014971;28;20485;-78
2021/08/12 09:12:36;;;;;;;3.33;2.13;;;;;;;25.08;44.14;102110.72;5015670;28;20038;-76
2021/08/12 09:15:07;;;;;;;4.05;2.40;;;;;;;25.85;42.55;102124.88;4997878;28;20042;-74
2021/08/12 09:17:32;;;;;;;6.22;2.53;;;;;;;26.44;42.18;102113.25;5015490;28;20029;-76
2021/08/12 09:20:01;;;;;;;7.40;2.40;;;;;;;27.26;41.30;102119.03;5015446;28;20038;-77
2021/08/12 09:22:29;;;;;;;3.28;2.10;;;;;;;28.10;39.63;102127.84;5015090;28;20088;-76
2021/08/12 09:24:55;;;;;;;5.57;2.10;;;;;;;28.44;37.81;102124.75;5015234;28;20025;-76
2021/08/12 09:27:21;;;;;;;3.60;2.30;;;;;;;29.04;37.12;102110.34;5014695;28;20141;-75
2021/08/12 09:29:47;;;;;;;4.75;2.22;;;;;;;29.28;37.41;102105.78;5015117;28;20034;-75
2021/08/12 09:32:12;;;;;;;3.70;2.30;;;;;;;29.81;36.15;102116.97;5014340;28;20435;-75
2021/08/12 09:34:46;;;;;;;4.88;2.28;;;;;;;29.76;34.93;102114.09;5015132;28;20534;-75
2021/08/12 09:37:12;;;;;;;7.60;2.50;;;;;;;29.71;35.56;102112.91;5014293;28;20544;-74
2021/08/12 09:39:39;;;;;;;7.47;2.20;;;;;;;29.91;35.12;102113.66;5015473;28;20029;-75
2021/08/12 09:42:05;;;;;;;5.40;2.20;;;;;;;29.59;37.07;102116.69;5014742;28;20485;-75
2021/08/12 09:44:43;;;;;;;4.78;2.40;;;;;;;29.54;36.11;102133.84;5016651;28;20050;-75
2021/08/12 09:47:29;;;;;;;4.65;2.33;;;;;;;29.57;35.17;102127.06;5014971;28;20022;-75
2021/08/12 09:49:57;;;;;;;5.10;2.50;;;;;;;29.31;38.16;102124.50;5014377;28;20041;-75
2021/08/12 09:52:36;;;;;;;5.45;2.28;;;;;;;29.39;36.42;102130.72;5014576;28;20025;-76
2021/08/12 09:55:07;;;;;;;6.60;2.30;;;;;;;29.33;36.88;102130.59;5015963;28;20030;-76
2021/08/12 09:57:41;;;;;;;4.50;2.10;;;;;;;29.90;35.24;102123.78;5015244;28;20030;-76
2021/08/12 10:00:08;;;;;;;6.30;2.47;;;;;;;29.82;36.03;102118.66;5014494;28;20382;-77
2021/08/12 10:02:33;;;;;;;6.07;2.75;;;;;;;29.78;35.84;102115.50;5014526;28;20048;-74
2021/08/12 10:05:05;;;;;;;6.05;2.38;;;;;;;29.67;38.06;102116.34;5013527;28;20133;-74
2021/08/12 10:07:41;;;;;;;12.05;2.58;;;;;;;29.50;38.54;102119.78;5013908;28;20052;-74
2021/08/12 10:10:16;;;;;;;4.15;2.17;;;;;;;29.73;36.57;102115.41;5014475;28;20040;-74
2021/08/12 10:12:47;;;;;;;6.45;2.63;;;;;;;29.71;35.91;102112.91;5014696;28;20073;-75
2021/08/12 10:15:14;;;;;;;4.78;2.50;;;;;;;29.48;37.34;102119.19;5012476;28;20534;-75
2021/08/12 10:17:44;;;;;;;8.07;2.85;;;;;;;28.83;39.11;102118.00;5014236;28;20034;-75
2021/08/12 10:20:19;;;;;;;5.22;2.75;;;;;;;28.73;40.66;102109.47;5014121;28;20129;-74
2021/08/12 10:22:46;;;;;;;10.45;2.78;;;;;;;29.13;39.04;102113.59;5014345;28;20072;-75
2021/08/12 10:25:14;;;;;;;6.38;2.63;;;;;;;29.37;38.17;102111.78;5013600;28;20038;-75
2021/08/12 10:27:41;;;;;;;5.47;2.90;;;;;;;30.00;37.47;102114.97;5014249;28;20041;-75
2021/08/12 10:30:09;;;;;;;5.88;2.80;;;;;;;30.31;35.86;102124.72;5014135;28;20092;-74
2021/08/12 10:32:37;;;;;;;6.70;2.83;;;;;;;30.39;36.85;102120.78;5013491;28;20030;-75
2021/08/12 10:35:07;;;;;;;7.70;2.80;;;;;;;30.42;36.88;102118.41;5013919;28;20470;-75
2021/08/12 10:37:33;;;;;;;6.28;3.05;;;;;;;30.33;37.92;102122.56;5013423;28;20037;-75
2021/08/12 10:39:59;;;;;;;7.70;3.17;;;;;;;30.34;35.40;102126.97;5013860;28;20137;-74
2021/08/12 10:42:25;;;;;;;6.53;2.70;;;;;;;30.63;35.72;102134.47;5013334;28;20460;-77
2021/08/12 10:44:51;;;;;;;5.03;3.08;;;;;;;29.63;38.00;102124.22;5013526;28;20050;-77
2021/08/12 10:47:39;;;;;;;6.25;3.30;;;;;;;28.92;39.19;102124.00;5012969;28;20494;-77
2021/08/12 10:50:27;;;;;;;6.00;2.80;;;;;;;29.07;39.87;102120.00;5013528;28;20056;-77
2021/08/12 10:53:01;;;;;;;7.00;2.90;;;;;;;29.22;39.19;102119.63;5013431;28;20471;-78
2021/08/12 10:55:27;;;;;;;6.82;3.30;;;;;;;28.74;40.04;102124.00;5012940;28;20092;-77
2021/08/12 10:58:17;;;;;;;7.70;3.25;;;;;;;28.09;41.59;102128.06;5013584;28;20425;-77
2021/08/12 11:00:46;;;;;;;8.18;3.00;;;;;;;27.89;42.20;102123.59;5013225;28;20478;-77
2021/08/12 11:03:12;;;;;;;8.32;3.00;;;;;;;27.25;43.21;102131.00;5013194;28;20030;-78
2021/08/12 11:06:00;;;;;;;8.45;3.20;;;;;;;26.42;44.96;102127.13;5012729;28;20032;-78
2021/08/12 11:08:50;;;;;;;7.07;3.28;;;;;;;25.70;46.62;102133.25;5012789;28;20454;-78
2021/08/12 11:11:28;;;;;;;7.50;3.38;;;;;;;24.68;49.26;102132.34;5013393;28;20037;-77
2021/08/12 11:13:59;;;;;;;6.45;3.13;;;;;;;24.32;50.32;102136.09;5013138;28;20096;-76
2021/08/12 11:16:26;;;;;;;5.40;3.00;;;;;;;24.25;50.92;102135.19;5012363;28;20486;-75
2021/08/12 11:18:54;;;;;;;7.55;3.50;;;;;;;24.26;51.61;102135.00;5013397;28;20033;-76